Terminal Aerodrome Forecast
Issued by NWS

Home | Current Version | Previous Version | Text Only | Print | Product List | Glossary On
Versions: 1 2 3 4 5 6 7 8 9 10 11 12 13 14 15 16 17 18 19 20 21 22 23 24 25 26 27
153
FTUS44 KTSA 161125
TAFFYV
TAF
KFYV 161125Z 1612/1712 00000KT P6SM VCSH SCT120 SCT250
     FM161600 20013G19KT P6SM SCT040 SCT110
     FM170200 19012KT P6SM SCT050 BKN250
     FM170500 19008KT P6SM BKN040 BKN250
      TEMPO 1705/1708 3SM TSRA BKN040CB
     FM170800 20007KT P6SM SCT080 BKN250=

USA.gov is the U.S. government's official web portal to all federal, state and local government web resources and services.